Time;durP1;ratioP1;P1;durP2;ratioP2;P2;SDS_P1;SDS_P2;PMS_P1;PMS_P2;Temp;Humidity;BMP_temperature;BMP_pressure;BME280_temperature;BME280_humidity;BME280_pressure;Samples;Min_cycle;Max_cycle;Signal;HPM_P1;HPM_P2
2021/11/13 00:01:36;;;;;;;11.03;9.93;;;11.70;92.10;;;;;;5055507;28;20181;-68
2021/11/13 00:04:02;;;;;;;11.67;10.20;;;11.60;92.40;;;;;;5054797;28;20880;-68
2021/11/13 00:06:28;;;;;;;11.87;10.60;;;11.50;92.60;;;;;;5053995;28;20219;-68
2021/11/13 00:08:54;;;;;;;11.10;9.90;;;11.10;92.90;;;;;;5054292;28;20231;-68
2021/11/13 00:11:19;;;;;;;12.10;10.17;;;11.00;93.80;;;;;;5055273;28;20205;-68
2021/11/13 00:13:51;;;;;;;11.20;10.10;;;11.00;93.90;;;;;;5054617;28;20173;-68
2021/11/13 00:16:17;;;;;;;13.33;10.57;;;10.60;94.30;;;;;;5055452;28;20264;-68
2021/11/13 00:18:43;;;;;;;15.30;9.83;;;10.70;94.60;;;;;;5054248;28;20421;-69
2021/11/13 00:21:10;;;;;;;10.73;9.63;;;10.80;94.70;;;;;;5053975;28;20434;-68
2021/11/13 00:23:36;;;;;;;12.03;10.00;;;10.80;94.80;;;;;;5054810;28;20418;-68
2021/11/13 00:26:03;;;;;;;10.97;9.90;;;10.90;95.00;;;;;;5054301;28;20448;-68
2021/11/13 00:28:29;;;;;;;11.87;10.60;;;10.90;94.90;;;;;;5054894;28;20402;-68
2021/11/13 00:30:54;;;;;;;11.83;10.50;;;10.90;94.70;;;;;;5054271;28;20511;-68
2021/11/13 00:33:20;;;;;;;12.83;11.00;;;10.90;94.50;;;;;;5054634;28;20427;-68
2021/11/13 00:35:46;;;;;;;13.37;11.30;;;11.00;94.30;;;;;;5054292;28;20192;-69
2021/11/13 00:38:12;;;;;;;11.90;10.30;;;11.10;94.00;;;;;;5054583;28;20416;-68
2021/11/13 00:40:39;;;;;;;11.93;10.73;;;11.10;94.00;;;;;;5054733;28;20187;-68
2021/11/13 00:43:05;;;;;;;10.93;9.83;;;11.10;93.80;;;;;;5053658;28;20519;-68
2021/11/13 00:45:30;;;;;;;11.67;10.57;;;11.10;93.50;;;;;;5052900;28;20563;-68
2021/11/13 00:47:56;;;;;;;11.37;10.10;;;11.20;93.30;;;;;;5052844;28;20208;-68
2021/11/13 00:50:23;;;;;;;11.00;9.90;;;11.20;93.10;;;;;;5054579;28;20760;-68
2021/11/13 00:52:49;;;;;;;11.13;10.03;;;11.20;93.30;;;;;;5052744;28;20257;-68
2021/11/13 00:55:19;;;;;;;12.10;10.90;;;11.20;93.10;;;;;;5054426;28;20419;-68
2021/11/13 00:57:45;;;;;;;11.67;10.53;;;11.30;92.80;;;;;;5054256;28;20418;-68
2021/11/13 01:00:14;;;;;;;9.90;8.90;;;11.30;92.60;;;;;;5054377;28;20423;-67
2021/11/13 01:02:41;;;;;;;11.00;9.97;;;11.30;92.60;;;;;;5054279;28;20411;-68
2021/11/13 01:05:07;;;;;;;11.00;9.90;;;11.30;92.60;;;;;;5053628;28;20495;-68
2021/11/13 01:07:33;;;;;;;11.60;9.97;;;11.30;92.60;;;;;;5052871;28;20917;-68
2021/11/13 01:09:59;;;;;;;9.60;8.70;;;11.30;92.50;;;;;;5053573;28;20891;-68
2021/11/13 01:12:25;;;;;;;12.40;10.80;;;11.30;92.60;;;;;;5052681;28;20425;-68
2021/11/13 01:14:51;;;;;;;12.67;10.97;;;11.30;92.90;;;;;;5053313;28;20189;-68
2021/11/13 01:17:17;;;;;;;12.00;10.90;;;11.40;93.20;;;;;;5054018;28;20454;-67
2021/11/13 01:19:46;;;;;;;11.00;9.87;;;11.40;93.50;;;;;;5053977;28;20412;-68
2021/11/13 01:22:15;;;;;;;11.20;9.80;;;11.30;93.30;;;;;;5054136;28;20417;-68
2021/11/13 01:24:41;;;;;;;9.97;8.90;;;11.30;93.40;;;;;;5053874;28;20435;-68
2021/11/13 01:27:07;;;;;;;10.57;9.47;;;11.40;93.50;;;;;;5052604;28;20709;-68
2021/11/13 01:29:33;;;;;;;12.00;10.03;;;11.40;93.60;;;;;;5053778;28;20465;-68
2021/11/13 01:31:59;;;;;;;10.23;8.87;;;11.40;93.50;;;;;;5053207;28;20401;-68
2021/11/13 01:34:25;;;;;;;11.97;10.00;;;11.50;93.30;;;;;;5053656;28;20407;-68
2021/11/13 01:36:51;;;;;;;10.53;9.63;;;11.40;93.40;;;;;;5052762;28;21018;-68
2021/11/13 01:39:18;;;;;;;12.20;10.10;;;11.40;93.50;;;;;;5053527;28;20511;-68
2021/11/13 01:41:43;;;;;;;10.90;9.80;;;11.40;93.30;;;;;;5053385;28;20416;-68
2021/11/13 01:44:10;;;;;;;10.80;9.83;;;11.30;93.40;;;;;;5052922;28;20422;-67
2021/11/13 01:46:38;;;;;;;11.60;9.20;;;11.40;93.60;;;;;;5053463;28;20235;-68
2021/11/13 01:49:05;;;;;;;11.57;9.20;;;11.40;93.80;;;;;;5052858;28;20431;-67
2021/11/13 01:51:34;;;;;;;11.80;10.40;;;11.30;93.60;;;;;;5052877;28;20415;-67
2021/11/13 01:54:07;;;;;;;11.13;9.90;;;11.30;93.80;;;;;;5052694;28;20413;-68
2021/11/13 01:56:35;;;;;;;14.10;10.30;;;11.10;94.10;;;;;;5053368;28;20431;-68
2021/11/13 01:59:03;;;;;;;10.77;9.77;;;11.10;94.30;;;;;;5052602;28;20491;-68
2021/11/13 02:01:29;;;;;;;11.37;10.13;;;11.10;94.70;;;;;;5053189;28;20479;-68
2021/11/13 02:03:57;;;;;;;13.70;10.37;;;11.00;94.40;;;;;;5052552;28;20418;-68
2021/11/13 02:06:24;;;;;;;11.30;10.20;;;10.80;95.10;;;;;;5053021;28;20482;-68
2021/11/13 02:08:50;;;;;;;16.17;10.67;;;10.80;95.10;;;;;;5052804;28;20407;-70
2021/11/13 02:11:19;;;;;;;11.37;10.27;;;10.80;95.20;;;;;;5052643;28;20455;-68
2021/11/13 02:13:45;;;;;;;11.50;10.00;;;10.90;95.40;;;;;;5052904;28;20471;-68
2021/11/13 02:16:11;;;;;;;12.23;11.03;;;10.80;95.60;;;;;;5052495;28;20427;-68
2021/11/13 02:18:41;;;;;;;15.23;10.90;;;10.80;95.80;;;;;;5052988;28;20417;-68
2021/11/13 02:21:08;;;;;;;11.90;10.70;;;10.70;96.00;;;;;;5052288;28;20421;-68
2021/11/13 02:23:34;;;;;;;11.80;10.03;;;10.70;96.40;;;;;;5052666;28;21000;-68
2021/11/13 02:26:00;;;;;;;12.70;10.57;;;10.80;96.50;;;;;;5051845;28;20545;-68
2021/11/13 02:28:26;;;;;;;11.50;10.37;;;10.90;96.40;;;;;;5051587;28;20179;-68
2021/11/13 02:30:55;;;;;;;11.30;9.47;;;10.80;96.40;;;;;;5052136;28;20174;-68
2021/11/13 02:33:22;;;;;;;14.17;10.77;;;10.70;96.50;;;;;;5052666;28;20477;-68
2021/11/13 02:35:50;;;;;;;10.90;9.20;;;10.70;96.80;;;;;;5052634;28;20416;-68
2021/11/13 02:38:29;;;;;;;13.67;9.93;;;10.70;97.00;;;;;;5051996;28;20831;-68
2021/11/13 02:40:58;;;;;;;12.40;9.53;;;10.70;97.20;;;;;;5052022;28;20419;-68
2021/11/13 02:43:27;;;;;;;11.97;9.80;;;10.60;97.60;;;;;;5051861;28;20822;-68
2021/11/13 02:45:55;;;;;;;13.57;10.20;;;10.70;97.70;;;;;;5051602;28;20491;-70
2021/11/13 02:48:26;;;;;;;11.60;10.20;;;10.60;97.60;;;;;;5051176;28;20422;-68
2021/11/13 02:50:52;;;;;;;12.53;10.00;;;10.60;98.10;;;;;;5051963;28;20420;-70
2021/11/13 02:53:23;;;;;;;11.77;9.70;;;10.80;97.90;;;;;;5051381;28;20417;-67
2021/11/13 02:55:52;;;;;;;11.00;9.63;;;10.80;97.80;;;;;;5052222;28;20391;-68
2021/11/13 02:58:20;;;;;;;12.23;10.73;;;10.90;97.70;;;;;;5052449;28;20416;-68
2021/11/13 03:00:48;;;;;;;11.60;10.40;;;11.00;97.80;;;;;;5052150;28;20428;-68
2021/11/13 03:03:19;;;;;;;11.57;10.13;;;11.00;97.70;;;;;;5055123;28;20521;-67
2021/11/13 03:05:48;;;;;;;15.20;10.47;;;11.00;97.70;;;;;;5056495;28;20448;-67
2021/11/13 03:08:29;;;;;;;12.73;10.30;;;11.10;97.70;;;;;;5055871;28;20413;-68
2021/11/13 03:10:58;;;;;;;11.23;10.00;;;11.10;97.70;;;;;;5055932;28;20415;-68
2021/11/13 03:13:25;;;;;;;11.13;10.00;;;11.20;97.60;;;;;;5038482;28;20769;-68
2021/11/13 03:15:52;;;;;;;14.23;10.67;;;11.30;97.50;;;;;;5056178;28;20442;-68
2021/11/13 03:18:19;;;;;;;12.80;9.70;;;11.20;97.30;;;;;;5055634;28;20431;-68
2021/11/13 03:20:45;;;;;;;11.13;9.90;;;11.20;97.60;;;;;;5055962;28;20408;-68
2021/11/13 03:23:12;;;;;;;10.43;9.27;;;11.20;97.60;;;;;;5055557;28;20473;-68
2021/11/13 03:25:40;;;;;;;10.60;9.47;;;11.20;97.50;;;;;;5056077;28;20464;-68
2021/11/13 03:28:11;;;;;;;12.70;10.20;;;11.20;97.60;;;;;;5055495;28;20429;-68
2021/11/13 03:30:38;;;;;;;12.20;9.93;;;11.20;97.70;;;;;;5056061;28;20450;-68
2021/11/13 03:33:05;;;;;;;10.70;9.70;;;11.20;97.60;;;;;;5055402;28;20455;-68
2021/11/13 03:35:32;;;;;;;12.20;10.90;;;11.30;97.60;;;;;;5055940;28;20419;-68
2021/11/13 03:38:04;;;;;;;13.13;10.00;;;11.30;97.60;;;;;;5055305;28;20894;-68
2021/11/13 03:40:31;;;;;;;16.90;10.90;;;11.30;97.70;;;;;;5055306;28;20775;-68
2021/11/13 03:42:57;;;;;;;13.50;10.40;;;11.30;97.80;;;;;;5055221;28;20929;-69
2021/11/13 03:45:23;;;;;;;10.70;9.60;;;11.30;97.90;;;;;;5055417;28;20474;-68
2021/11/13 03:47:49;;;;;;;11.50;9.90;;;11.40;98.00;;;;;;5055677;28;20423;-68
2021/11/13 03:50:15;;;;;;;11.80;10.23;;;11.40;98.10;;;;;;5055399;28;20661;-68
2021/11/13 03:52:41;;;;;;;14.93;10.77;;;11.40;98.30;;;;;;5055704;28;20188;-68
2021/11/13 03:55:07;;;;;;;13.00;11.10;;;11.40;98.40;;;;;;5054754;28;20416;-68
2021/11/13 03:57:33;;;;;;;12.10;10.80;;;11.40;98.40;;;;;;5054086;28;20596;-68
2021/11/13 03:59:59;;;;;;;11.87;10.10;;;11.40;98.70;;;;;;5054917;28;20494;-68
2021/11/13 04:02:25;;;;;;;14.50;11.43;;;11.40;98.80;;;;;;5055382;28;20197;-68
2021/11/13 04:04:51;;;;;;;12.07;10.87;;;11.40;99.20;;;;;;5054202;28;20411;-67
2021/11/13 04:07:16;;;;;;;13.30;10.90;;;11.40;98.90;;;;;;5054731;28;20250;-67
2021/11/13 04:09:42;;;;;;;12.33;10.63;;;11.40;99.20;;;;;;5055029;28;20262;-68
2021/11/13 04:12:10;;;;;;;13.97;10.83;;;11.40;99.40;;;;;;5054656;28;20256;-68
2021/11/13 04:14:36;;;;;;;16.10;11.93;;;11.40;99.70;;;;;;5054457;28;20400;-67
2021/11/13 04:17:04;;;;;;;12.40;10.43;;;11.40;99.90;;;;;;5053410;28;20421;-68
2021/11/13 04:19:30;;;;;;;16.03;10.73;;;11.30;99.90;;;;;;5055129;28;20458;-67
2021/11/13 04:21:56;;;;;;;16.50;11.20;;;11.10;99.90;;;;;;5054782;28;20507;-67
2021/11/13 04:24:22;;;;;;;13.33;11.83;;;11.20;99.90;;;;;;5054519;28;20405;-68
2021/11/13 04:26:48;;;;;;;15.33;12.07;;;11.10;99.90;;;;;;5054983;28;20462;-67
2021/11/13 04:29:13;;;;;;;17.83;11.40;;;11.10;99.90;;;;;;5054100;28;20225;-68
2021/11/13 04:31:39;;;;;;;14.30;11.47;;;11.00;99.90;;;;;;5054903;28;20887;-68
2021/11/13 04:34:13;;;;;;;12.90;11.10;;;11.00;99.90;;;;;;5054157;28;20927;-67
2021/11/13 04:36:41;;;;;;;12.13;9.97;;;11.10;99.90;;;;;;5054907;28;20575;-67
2021/11/13 04:39:10;;;;;;;13.70;11.90;;;11.10;99.90;;;;;;5054204;28;20455;-68
2021/11/13 04:41:38;;;;;;;14.63;11.17;;;11.20;99.90;;;;;;5054023;28;20761;-67
2021/11/13 04:44:04;;;;;;;14.87;11.80;;;11.20;99.90;;;;;;5054122;28;20949;-68
2021/11/13 04:46:29;;;;;;;10.70;9.60;;;11.10;99.90;;;;;;5054075;28;20554;-67
2021/11/13 04:48:55;;;;;;;13.70;11.07;;;11.00;99.90;;;;;;5054633;28;20491;-67
2021/11/13 04:51:22;;;;;;;13.83;11.43;;;11.00;99.90;;;;;;5053883;28;20240;-67
2021/11/13 04:53:49;;;;;;;13.80;10.40;;;11.10;99.90;;;;;;5054496;28;20590;-67
2021/11/13 04:56:14;;;;;;;12.53;11.23;;;11.10;99.90;;;;;;5053553;28;20772;-68
2021/11/13 04:58:41;;;;;;;12.87;11.37;;;11.20;99.90;;;;;;5054708;28;20414;-67
2021/11/13 05:01:07;;;;;;;11.83;9.93;;;11.00;99.90;;;;;;5053791;28;20257;-68
2021/11/13 05:03:33;;;;;;;12.83;10.33;;;11.00;99.90;;;;;;5054356;28;20832;-68
2021/11/13 05:05:59;;;;;;;12.20;10.30;;;11.00;99.90;;;;;;5054158;28;20546;-67
2021/11/13 05:08:25;;;;;;;11.23;10.13;;;11.20;99.90;;;;;;5053942;28;20814;-67
2021/11/13 05:10:51;;;;;;;11.03;9.83;;;11.10;99.90;;;;;;5054015;28;20418;-67
2021/11/13 05:13:18;;;;;;;13.20;9.83;;;11.20;99.90;;;;;;5053417;28;20447;-68
2021/11/13 05:15:44;;;;;;;10.63;9.37;;;11.20;99.90;;;;;;5053952;28;20220;-68
2021/11/13 05:18:11;;;;;;;10.50;9.40;;;11.20;99.90;;;;;;5053413;28;20401;-68
2021/11/13 05:20:36;;;;;;;12.23;9.80;;;11.20;99.90;;;;;;5053950;28;20496;-67
2021/11/13 05:23:02;;;;;;;11.37;10.17;;;11.20;99.90;;;;;;5053342;28;20499;-68
2021/11/13 05:25:28;;;;;;;10.13;9.10;;;11.10;99.90;;;;;;5051326;28;20413;-68
2021/11/13 05:27:54;;;;;;;11.13;9.90;;;11.10;99.90;;;;;;5053908;28;20218;-68
2021/11/13 05:30:22;;;;;;;10.47;9.37;;;11.20;99.90;;;;;;5053202;28;20406;-68
2021/11/13 05:32:49;;;;;;;9.70;8.70;;;11.20;99.90;;;;;;5053735;28;20440;-68
2021/11/13 05:35:15;;;;;;;11.20;10.03;;;11.20;99.90;;;;;;5053079;28;20435;-67
2021/11/13 05:37:41;;;;;;;9.43;8.50;;;11.10;99.90;;;;;;5052735;28;20415;-66
2021/11/13 05:40:09;;;;;;;9.63;8.73;;;11.10;99.90;;;;;;5052318;28;20436;-67
2021/11/13 05:42:35;;;;;;;12.40;10.90;;;11.10;99.90;;;;;;5052786;28;20420;-66
2021/11/13 05:45:02;;;;;;;11.40;10.23;;;11.10;99.90;;;;;;5051190;28;20468;-66
2021/11/13 05:47:28;;;;;;;10.57;9.57;;;11.10;99.90;;;;;;5053530;28;20567;-66
2021/11/13 05:49:55;;;;;;;10.33;9.40;;;11.20;99.90;;;;;;5053293;28;20517;-66
2021/11/13 05:52:22;;;;;;;10.40;9.40;;;11.20;99.90;;;;;;5052791;28;20416;-66
2021/11/13 05:54:47;;;;;;;10.60;9.53;;;11.20;99.90;;;;;;5053337;28;20411;-66
2021/11/13 05:57:13;;;;;;;9.33;8.50;;;11.30;99.90;;;;;;5052623;28;20438;-66
2021/11/13 05:59:39;;;;;;;7.90;7.20;;;11.40;99.90;;;;;;5053327;28;20176;-66
2021/11/13 06:02:05;;;;;;;8.63;7.90;;;11.20;99.90;;;;;;5052203;28;20293;-66
2021/11/13 06:04:31;;;;;;;8.63;7.53;;;11.30;99.90;;;;;;5052050;28;20174;-66
2021/11/13 06:06:56;;;;;;;9.13;8.33;;;11.30;99.90;;;;;;5052045;28;21015;-66
2021/11/13 06:09:22;;;;;;;8.47;7.67;;;11.30;99.90;;;;;;5052444;28;20178;-66
2021/11/13 06:11:48;;;;;;;8.50;7.77;;;11.20;99.90;;;;;;5052897;28;20170;-66
2021/11/13 06:14:13;;;;;;;9.17;7.67;;;11.20;99.90;;;;;;5052562;28;20178;-66
2021/11/13 06:16:39;;;;;;;8.80;7.97;;;11.30;99.90;;;;;;5052264;28;20261;-66
2021/11/13 06:19:05;;;;;;;8.70;7.80;;;11.30;99.90;;;;;;5051581;28;20183;-67
2021/11/13 06:21:30;;;;;;;8.20;7.50;;;11.30;99.90;;;;;;5051746;28;20633;-66
2021/11/13 06:23:56;;;;;;;7.87;7.20;;;11.20;99.90;;;;;;5050798;28;20177;-66
2021/11/13 06:26:22;;;;;;;7.87;7.17;;;11.20;99.90;;;;;;5050710;28;20209;-66
2021/11/13 06:28:48;;;;;;;6.90;6.30;;;11.10;99.90;;;;;;5050855;28;20530;-66
2021/11/13 06:31:14;;;;;;;7.83;7.23;;;11.20;99.90;;;;;;5050680;28;20185;-66
2021/11/13 06:33:40;;;;;;;8.40;7.60;;;11.10;99.90;;;;;;5052504;28;20438;-65
2021/11/13 06:36:06;;;;;;;8.00;7.30;;;11.10;99.90;;;;;;5050767;28;20911;-67
2021/11/13 06:38:33;;;;;;;8.80;7.90;;;11.20;99.90;;;;;;5050406;28;20415;-66
2021/11/13 06:40:58;;;;;;;8.20;7.60;;;11.20;99.90;;;;;;5051874;28;20193;-66
2021/11/13 06:43:24;;;;;;;8.03;7.33;;;11.20;99.90;;;;;;5052032;28;20883;-68
2021/11/13 06:45:50;;;;;;;8.10;7.30;;;11.20;99.90;;;;;;5051943;28;20244;-67
2021/11/13 06:48:17;;;;;;;8.47;7.77;;;11.30;99.90;;;;;;5051880;28;20243;-68
2021/11/13 06:50:46;;;;;;;8.97;8.17;;;11.30;99.90;;;;;;5052794;28;20439;-68
2021/11/13 06:53:11;;;;;;;7.90;7.20;;;11.30;99.90;;;;;;5052191;28;20468;-68
2021/11/13 06:55:37;;;;;;;8.23;7.43;;;11.30;99.90;;;;;;5052157;28;20428;-68
2021/11/13 06:58:03;;;;;;;7.13;6.63;;;11.30;99.90;;;;;;5052483;28;20411;-67
2021/11/13 07:00:29;;;;;;;7.40;6.80;;;11.30;99.90;;;;;;5051800;28;20175;-68
2021/11/13 07:02:59;;;;;;;7.00;6.50;;;11.30;99.90;;;;;;5052473;28;20174;-67
2021/11/13 07:05:26;;;;;;;7.00;6.40;;;11.30;99.90;;;;;;5050159;28;20419;-68
2021/11/13 07:07:51;;;;;;;7.50;6.57;;;11.40;99.90;;;;;;5052036;28;20427;-67
2021/11/13 07:10:17;;;;;;;7.53;6.93;;;11.40;99.90;;;;;;5051432;28;20424;-67
2021/11/13 07:12:44;;;;;;;6.70;6.20;;;11.40;99.90;;;;;;5052157;28;20242;-67
2021/11/13 07:15:11;;;;;;;6.50;6.00;;;11.40;99.90;;;;;;5051503;28;20416;-67
2021/11/13 07:17:37;;;;;;;5.60;5.20;;;11.40;99.90;;;;;;5052272;28;20438;-66
2021/11/13 07:20:04;;;;;;;7.50;7.00;;;11.50;99.90;;;;;;5051015;28;20407;-69
2021/11/13 07:22:30;;;;;;;6.90;6.20;;;11.80;99.90;;;;;;5050603;28;20166;-69
2021/11/13 07:24:56;;;;;;;7.33;6.63;;;12.20;99.90;;;;;;5051649;28;21002;-68
2021/11/13 07:27:22;;;;;;;7.00;6.40;;;12.80;99.90;;;;;;5049738;28;20466;-69
2021/11/13 07:29:57;;;;;;;6.87;6.27;;;13.20;99.90;;;;;;5051685;28;20249;-69
2021/11/13 07:32:24;;;;;;;6.40;5.90;;;13.80;99.90;;;;;;5051392;28;20762;-69
2021/11/13 07:34:49;;;;;;;7.37;6.77;;;14.30;99.90;;;;;;5052012;28;20453;-69
2021/11/13 07:37:16;;;;;;;7.67;6.97;;;14.80;99.90;;;;;;5049317;28;20463;-69
2021/11/13 07:39:42;;;;;;;7.50;6.80;;;15.20;99.90;;;;;;5052138;28;20181;-69
2021/11/13 07:42:08;;;;;;;6.40;5.80;;;15.50;99.90;;;;;;5052016;28;20454;-69
2021/11/13 07:44:34;;;;;;;5.70;5.30;;;15.80;99.90;;;;;;5049851;28;20433;-70
2021/11/13 07:47:00;;;;;;;6.97;6.47;;;16.10;98.60;;;;;;5051625;28;20239;-69
2021/11/13 07:49:26;;;;;;;7.63;6.93;;;16.30;98.60;;;;;;5052679;28;20466;-68
2021/11/13 07:51:52;;;;;;;7.10;6.50;;;16.40;97.30;;;;;;5055691;28;20227;-69
2021/11/13 07:54:18;;;;;;;6.57;6.07;;;16.50;96.50;;;;;;5054949;28;20404;-69
2021/11/13 07:56:44;;;;;;;6.27;5.80;;;16.80;97.70;;;;;;5055479;28;20419;-69
2021/11/13 07:59:11;;;;;;;8.30;7.17;;;16.90;95.70;;;;;;5055066;28;20404;-78
2021/11/13 08:01:36;;;;;;;6.97;6.30;;;16.90;93.70;;;;;;5054865;28;20188;-70
2021/11/13 08:04:02;;;;;;;8.33;7.63;;;17.00;94.50;;;;;;5053514;28;20473;-69
2021/11/13 08:06:28;;;;;;;7.70;7.10;;;17.00;95.50;;;;;;5054045;28;20197;-69
2021/11/13 08:08:55;;;;;;;8.00;7.30;;;17.10;95.20;;;;;;5055228;28;20650;-69
2021/11/13 08:11:20;;;;;;;8.07;7.37;;;17.10;92.10;;;;;;5054100;28;22240;-69
2021/11/13 08:13:46;;;;;;;7.00;6.50;;;16.70;90.70;;;;;;5054520;28;20408;-66
2021/11/13 08:16:12;;;;;;;8.20;7.50;;;16.50;91.00;;;;;;5054802;28;20187;-69
2021/11/13 08:18:38;;;;;;;8.17;7.33;;;16.10;90.80;;;;;;5055144;28;20422;-66
2021/11/13 08:21:04;;;;;;;7.97;7.20;;;15.70;91.50;;;;;;5055117;28;20612;-66
2021/11/13 08:23:31;;;;;;;7.87;7.03;;;15.30;92.10;;;;;;5054426;28;20419;-66
2021/11/13 08:25:58;;;;;;;182.47;118.33;;;15.00;92.80;;;;;;5054913;28;20442;-66
2021/11/13 08:28:24;;;;;;;15.30;11.60;;;14.70;93.70;;;;;;5054762;28;20795;-68
2021/11/13 08:30:51;;;;;;;8.27;7.47;;;14.50;94.30;;;;;;5054656;28;20429;-66
2021/11/13 08:33:17;;;;;;;7.20;6.43;;;14.20;94.70;;;;;;5053229;28;21288;-66
2021/11/13 08:35:45;;;;;;;6.80;6.20;;;14.00;95.30;;;;;;5054627;28;20428;-66
2021/11/13 08:38:20;;;;;;;6.93;6.33;;;13.90;95.80;;;;;;5054528;28;20415;-66
2021/11/13 08:40:47;;;;;;;7.67;6.97;;;13.70;96.40;;;;;;5054509;28;20587;-66
2021/11/13 08:43:14;;;;;;;8.13;7.33;;;13.50;97.00;;;;;;5054019;28;20420;-75
2021/11/13 08:45:41;;;;;;;8.23;7.30;;;13.30;97.60;;;;;;5054179;28;20988;-66
2021/11/13 08:48:07;;;;;;;6.90;6.40;;;13.20;98.10;;;;;;5054384;28;20453;-66
2021/11/13 08:50:33;;;;;;;8.03;7.10;;;13.10;98.70;;;;;;5053797;28;20967;-66
2021/11/13 08:53:02;;;;;;;7.07;6.37;;;12.80;98.90;;;;;;5054642;28;20491;-66
2021/11/13 08:55:30;;;;;;;6.73;6.23;;;12.80;99.00;;;;;;5053782;28;20552;-67
2021/11/13 08:57:57;;;;;;;7.63;6.97;;;12.60;99.30;;;;;;5054177;28;20419;-68
2021/11/13 09:00:45;;;;;;;6.47;5.97;;;12.50;99.80;;;;;;5053614;28;20401;-68
2021/11/13 09:03:18;;;;;;;8.40;7.50;;;12.50;99.90;;;;;;5040928;28;20422;-68
2021/11/13 09:05:44;;;;;;;7.30;6.70;;;12.40;99.90;;;;;;5054382;28;20514;-68
2021/11/13 09:08:10;;;;;;;7.37;6.77;;;12.20;99.90;;;;;;5050361;28;20415;-68
2021/11/13 09:10:38;;;;;;;7.13;6.53;;;12.20;99.90;;;;;;5052242;28;20454;-68
2021/11/13 09:13:04;;;;;;;9.60;7.03;;;12.20;99.90;;;;;;5052982;28;20816;-68
2021/11/13 09:15:33;;;;;;;6.97;6.37;;;12.20;99.90;;;;;;5045882;28;20416;-68
2021/11/13 09:17:59;;;;;;;7.10;6.50;;;12.20;99.90;;;;;;5053615;28;20436;-69
2021/11/13 09:20:26;;;;;;;6.97;6.40;;;12.10;99.90;;;;;;5053307;28;20461;-69
2021/11/13 09:22:53;;;;;;;6.87;6.17;;;12.10;99.90;;;;;;5054105;28;20428;-68
2021/11/13 09:25:19;;;;;;;91.67;61.10;;;12.10;99.90;;;;;;5052991;28;20470;-68
2021/11/13 09:27:46;;;;;;;8.83;7.60;;;12.10;99.90;;;;;;5053459;28;20940;-69
2021/11/13 09:30:18;;;;;;;6.43;5.53;;;12.00;99.90;;;;;;5053154;28;20420;-73
2021/11/13 09:32:46;;;;;;;5.93;5.47;;;12.00;99.90;;;;;;5053819;28;20399;-73
2021/11/13 09:35:16;;;;;;;6.30;5.80;;;12.00;99.90;;;;;;5052201;28;20412;-73
2021/11/13 09:37:43;;;;;;;6.33;5.83;;;12.00;99.90;;;;;;5052029;28;20473;-73
2021/11/13 09:40:10;;;;;;;5.60;5.20;;;12.00;99.90;;;;;;5051971;28;20458;-74
2021/11/13 09:42:37;;;;;;;6.67;6.20;;;12.00;99.90;;;;;;5052388;28;20416;-73
2021/11/13 09:45:05;;;;;;;6.13;5.70;;;12.00;99.90;;;;;;5053288;28;20455;-73
2021/11/13 09:47:34;;;;;;;6.40;5.80;;;12.00;99.90;;;;;;5052874;28;20467;-71
2021/11/13 09:50:00;;;;;;;6.73;6.13;;;12.10;99.90;;;;;;5053417;28;20500;-73
2021/11/13 09:52:26;;;;;;;6.53;6.00;;;12.10;99.90;;;;;;5052809;28;20408;-73
2021/11/13 09:54:52;;;;;;;5.90;5.40;;;12.10;99.90;;;;;;5053289;28;20400;-73
2021/11/13 09:57:18;;;;;;;5.80;5.40;;;12.10;99.90;;;;;;5052805;28;20403;-73
2021/11/13 09:59:44;;;;;;;5.90;5.40;;;12.10;99.90;;;;;;5053301;28;20496;-73
2021/11/13 10:02:11;;;;;;;5.40;4.97;;;12.10;99.90;;;;;;5051940;28;20466;-74
2021/11/13 10:04:37;;;;;;;5.13;4.83;;;12.10;99.90;;;;;;5052606;28;20174;-72
2021/11/13 10:07:03;;;;;;;5.87;5.50;;;12.10;99.90;;;;;;5053076;28;20476;-71
2021/11/13 10:09:29;;;;;;;6.00;5.50;;;12.20;99.90;;;;;;5052600;28;20419;-73
2021/11/13 10:11:55;;;;;;;5.53;5.13;;;12.20;99.90;;;;;;5052591;28;20402;-71
2021/11/13 10:14:39;;;;;;;6.50;5.90;;;12.20;99.90;;;;;;5052330;28;20470;-72
2021/11/13 10:17:20;;;;;;;5.53;5.13;;;12.20;99.90;;;;;;5052944;28;20178;-71
2021/11/13 10:19:46;;;;;;;5.13;4.83;;;12.20;99.90;;;;;;5053008;28;20513;-73
2021/11/13 10:22:12;;;;;;;5.40;4.90;;;12.30;99.90;;;;;;5052949;28;20396;-71
2021/11/13 10:24:47;;;;;;;5.43;5.03;;;12.30;99.90;;;;;;5052222;28;20412;-72
2021/11/13 10:27:13;;;;;;;6.17;5.67;;;12.30;99.90;;;;;;5052554;28;20448;-72
2021/11/13 10:29:39;;;;;;;6.23;5.63;;;12.30;99.90;;;;;;5052110;28;21216;-73
2021/11/13 10:32:09;;;;;;;4.97;4.60;;;12.30;99.90;;;;;;5052750;28;20462;-73
2021/11/13 10:34:42;;;;;;;6.57;5.67;;;12.30;99.90;;;;;;5052168;28;20444;-71
2021/11/13 10:37:17;;;;;;;5.67;5.27;;;12.30;99.90;;;;;;5051462;28;20413;-70
2021/11/13 10:39:44;;;;;;;5.53;5.10;;;12.30;99.90;;;;;;5052095;28;20393;-72
2021/11/13 10:42:13;;;;;;;5.87;5.37;;;12.40;99.90;;;;;;5052380;28;20443;-71
2021/11/13 10:44:50;;;;;;;10.50;9.33;;;12.40;99.90;;;;;;5051677;28;20777;-72
2021/11/13 10:47:21;;;;;;;4.90;4.60;;;12.40;99.90;;;;;;5052505;28;20452;-72
2021/11/13 10:49:51;;;;;;;6.17;4.90;;;12.40;99.90;;;;;;5052702;28;20481;-73
2021/11/13 10:52:19;;;;;;;5.23;4.90;;;12.40;99.90;;;;;;5051247;28;20435;-72
2021/11/13 10:54:51;;;;;;;5.60;5.20;;;12.40;99.90;;;;;;5051538;28;20893;-72
2021/11/13 10:57:29;;;;;;;5.37;5.07;;;12.50;99.90;;;;;;5051252;28;20408;-72
2021/11/13 11:00:10;;;;;;;6.17;5.77;;;12.40;99.90;;;;;;5052431;28;20393;-72
2021/11/13 11:02:35;;;;;;;6.30;5.80;;;12.50;99.90;;;;;;5051881;28;20861;-72
2021/11/13 11:05:16;;;;;;;6.13;5.73;;;12.50;99.90;;;;;;5052691;28;20566;-72
2021/11/13 11:07:42;;;;;;;5.33;5.03;;;12.50;99.90;;;;;;5051729;28;20731;-73
2021/11/13 11:10:12;;;;;;;4.37;4.07;;;12.50;99.90;;;;;;5052044;28;20497;-72
2021/11/13 11:12:39;;;;;;;5.50;5.10;;;12.60;99.90;;;;;;5051440;28;20388;-72
2021/11/13 11:15:11;;;;;;;5.30;4.90;;;12.60;99.90;;;;;;5052279;28;20410;-72
2021/11/13 11:17:37;;;;;;;6.20;5.20;;;12.60;99.90;;;;;;5051671;28;20431;-72
2021/11/13 11:20:16;;;;;;;5.60;5.10;;;12.60;99.90;;;;;;5052394;28;20414;-72
2021/11/13 11:22:44;;;;;;;6.03;5.40;;;12.60;99.90;;;;;;5052425;28;20893;-72
2021/11/13 11:25:12;;;;;;;5.30;4.90;;;12.60;99.90;;;;;;5056129;28;20419;-72
2021/11/13 11:27:41;;;;;;;5.20;4.80;;;12.60;99.90;;;;;;5055734;28;20464;-72
2021/11/13 11:30:15;;;;;;;5.27;4.80;;;12.70;99.90;;;;;;5055022;28;20922;-73
2021/11/13 11:32:51;;;;;;;5.50;5.10;;;12.70;99.90;;;;;;5055472;28;20401;-73
2021/11/13 11:35:20;;;;;;;5.77;5.37;;;12.70;99.90;;;;;;5056058;28;20760;-72
2021/11/13 11:37:49;;;;;;;5.90;5.40;;;12.70;99.90;;;;;;5055416;28;20436;-72
2021/11/13 11:40:23;;;;;;;6.30;5.90;;;12.70;99.90;;;;;;5055742;28;20493;-72
2021/11/13 11:42:49;;;;;;;5.97;5.63;;;12.70;99.90;;;;;;5054181;28;20404;-72
2021/11/13 11:45:19;;;;;;;6.77;6.33;;;12.80;99.90;;;;;;5055612;28;20784;-73
2021/11/13 11:47:47;;;;;;;6.87;6.47;;;12.70;99.90;;;;;;5055053;28;20458;-72
2021/11/13 11:50:15;;;;;;;6.07;5.67;;;12.70;99.90;;;;;;5055674;28;20399;-73
2021/11/13 11:52:44;;;;;;;7.80;7.17;;;12.70;99.90;;;;;;5055084;28;20399;-73
2021/11/13 11:55:11;;;;;;;11.07;10.07;;;12.80;99.90;;;;;;5055595;28;20411;-72
2021/11/13 11:57:40;;;;;;;11.93;10.80;;;12.80;99.90;;;;;;5054959;28;20413;-72
2021/11/13 12:00:14;;;;;;;6.93;6.33;;;12.80;99.90;;;;;;5055539;28;20404;-73
2021/11/13 12:02:45;;;;;;;6.03;5.53;;;12.80;99.90;;;;;;5054929;28;20399;-73
2021/11/13 12:05:13;;;;;;;7.07;6.37;;;12.80;99.90;;;;;;5055515;28;20490;-72
2021/11/13 12:07:41;;;;;;;6.23;5.83;;;12.70;99.90;;;;;;5054669;28;20469;-73
2021/11/13 12:10:22;;;;;;;6.77;6.27;;;12.60;99.90;;;;;;5055443;28;20468;-73
2021/11/13 12:13:02;;;;;;;6.10;5.60;;;12.70;99.90;;;;;;5054752;28;20464;-72
2021/11/13 12:15:28;;;;;;;6.70;6.23;;;12.70;99.90;;;;;;5054699;28;20808;-73
2021/11/13 12:17:57;;;;;;;6.40;5.87;;;12.70;99.90;;;;;;5055347;28;20403;-73
2021/11/13 12:20:30;;;;;;;6.40;5.90;;;12.70;99.90;;;;;;5055123;28;20416;-72
2021/11/13 12:23:03;;;;;;;6.80;6.27;;;12.80;99.90;;;;;;5054674;28;20950;-73
2021/11/13 12:25:41;;;;;;;6.27;5.80;;;12.60;99.90;;;;;;5054337;28;20402;-73
2021/11/13 12:28:09;;;;;;;6.83;6.33;;;12.60;99.90;;;;;;5055239;28;20408;-72
2021/11/13 12:31:08;;;;;;;6.60;6.20;;;12.60;99.90;;;;;;5054244;28;20414;-73
2021/11/13 12:33:34;;;;;;;6.77;6.17;;;12.60;99.90;;;;;;5049601;28;20495;-73
2021/11/13 12:36:11;;;;;;;6.87;6.37;;;12.60;99.90;;;;;;5054315;28;20425;-73
2021/11/13 12:38:43;;;;;;;6.90;6.30;;;12.60;99.90;;;;;;5053658;28;20220;-73
2021/11/13 12:41:18;;;;;;;6.90;6.33;;;12.60;99.90;;;;;;5050913;28;20417;-73